Time;durP1;ratioP1;P1;durP2;ratioP2;P2;SDS_P1;SDS_P2;PMS_P1;PMS_P2;Temp;Humidity;BMP_temperature;BMP_pressure;BME280_temperature;BME280_humidity;BME280_pressure;Samples;Min_cycle;Max_cycle;Signal;HPM_P1;HPM_P2
2021/12/05 00:26:35;;;;;;;10.80;4.83;;;;;;;2.37;100.00;99901.97;31378827;28;20526;-76
2021/12/05 01:12:41;;;;;;;8.63;4.70;;;;;;;2.31;100.00;99892.72;31276173;28;20053;-76
2021/12/05 01:27:43;;;;;;;7.57;4.20;;;;;;;2.27;100.00;99891.91;31336738;28;20586;-76
2021/12/05 02:44:01;;;;;;;9.77;5.43;;;;;;;2.17;100.00;99875.72;31298165;28;20045;-76
2021/12/05 02:59:18;;;;;;;10.77;5.57;;;;;;;2.19;100.00;99866.19;31323437;28;20060;-77
2021/12/05 03:14:20;;;;;;;;;;;;;;;2.17;100.00;99876.50;31338525;28;20724;-76
2021/12/05 03:29:22;;;;;;;17.13;6.37;;;;;;;2.16;100.00;99891.03;31340626;28;19921;-76
2021/12/05 03:44:31;;;;;;;11.97;6.43;;;;;;;2.03;100.00;99903.13;31277263;28;20052;-76
2021/12/05 03:59:33;;;;;;;16.90;7.60;;;;;;;2.05;100.00;99928.41;31285386;28;20140;-75
2021/12/05 04:14:39;;;;;;;13.67;6.90;;;;;;;1.92;100.00;99950.41;31304941;28;20057;-77
2021/12/05 04:29:41;;;;;;;14.10;7.63;;;;;;;1.87;100.00;99953.44;31328833;28;20140;-76
2021/12/05 04:44:44;;;;;;;15.63;7.83;;;;;;;1.83;100.00;99979.38;31278310;28;20137;-76
2021/12/05 04:59:52;;;;;;;14.03;7.70;;;;;;;1.86;100.00;99997.38;31292989;28;20056;-76
2021/12/05 05:14:55;;;;;;;10.17;6.13;;;;;;;1.93;100.00;100010.84;31329689;28;20135;-76
2021/12/05 05:45:16;;;;;;;23.47;9.40;;;;;;;1.93;100.00;100027.69;31349787;28;20273;-77
2021/12/05 06:00:33;;;;;;;21.80;8.30;;;;;;;1.83;100.00;100012.25;31322653;28;20145;-76
2021/12/05 06:15:36;;;;;;;20.23;8.27;;;;;;;1.81;100.00;100029.81;31320649;28;20131;-78
2021/12/05 06:46:22;;;;;;;17.07;7.67;;;;;;;1.95;100.00;100046.06;31313170;28;20049;-77
2021/12/05 07:01:30;;;;;;;17.43;8.03;;;;;;;2.00;100.00;100061.81;31346072;28;20053;-77
2021/12/05 07:46:59;;;;;;;13.70;7.33;;;;;;;2.17;100.00;100096.09;31297423;28;20049;-76
2021/12/05 08:17:22;;;;;;;17.40;8.17;;;;;;;2.15;100.00;100076.94;31356252;28;20053;-76
2021/12/05 08:32:33;;;;;;;16.57;8.07;;;;;;;2.34;100.00;100076.06;31293441;28;20053;-77
2021/12/05 10:20:15;;;;;;;18.53;9.67;;;;;;;2.59;99.23;100113.91;31406995;28;20049;-77
2021/12/05 10:50:34;;;;;;;19.07;8.70;;;;;;;2.72;98.10;100152.75;31336700;28;20064;-76
2021/12/05 11:05:37;;;;;;;19.27;10.03;;;;;;;2.75;98.33;100168.09;31292540;28;20533;-77
2021/12/05 11:20:45;;;;;;;22.80;11.03;;;;;;;2.75;98.08;100168.09;31314558;28;20049;-77
2021/12/05 11:35:48;;;;;;;17.93;9.07;;;;;;;2.83;97.98;100185.81;31330608;28;20570;-77
2021/12/05 11:50:51;;;;;;;21.73;10.07;;;;;;;2.95;96.79;100203.59;31287183;28;20073;-78
2021/12/05 12:05:53;;;;;;;18.37;9.30;;;;;;;2.98;95.13;100214.34;31308297;28;20107;-78
2021/12/05 12:21:07;;;;;;;20.90;8.70;;;;;;;2.81;95.26;100220.28;31341108;28;20445;-76
2021/12/05 12:36:09;;;;;;;15.67;7.90;;;;;;;2.84;95.22;100240.19;31299931;28;20045;-76
2021/12/05 12:51:33;;;;;;;18.10;8.37;;;;;;;2.79;93.62;100227.91;31353544;28;20061;-77
2021/12/05 13:22:07;;;;;;;21.17;9.40;;;;;;;2.52;96.28;100196.88;31322300;28;20148;-76
2021/12/05 13:37:09;;;;;;;17.90;8.83;;;;;;;2.57;97.72;100209.97;31362356;28;20076;-77
2021/12/05 13:52:31;;;;;;;17.40;8.47;;;;;;;2.64;95.10;100243.00;31318217;28;20060;-78
2021/12/05 14:07:33;;;;;;;16.17;7.93;;;;;;;2.72;95.63;100265.31;31325548;28;20123;-78
2021/12/05 14:22:37;;;;;;;15.77;8.27;;;;;;;2.62;95.25;100239.13;31341694;28;20036;-76
2021/12/05 14:37:41;;;;;;;28.10;12.53;;;;;;;2.58;96.57;100259.75;31310046;28;20048;-78
2021/12/05 14:52:47;;;;;;;36.37;14.70;;;;;;;2.65;96.04;100275.94;31336843;28;20478;-75
2021/12/05 15:07:49;;;;;;;18.93;9.17;;;;;;;2.43;94.53;100290.91;31312397;28;20479;-74
2021/12/05 15:22:55;;;;;;;18.63;9.00;;;;;;;2.09;98.17;100308.72;31323847;28;20045;-75
2021/12/05 15:38:08;;;;;;;18.48;9.30;;;;;;;1.94;97.58;100307.66;31339040;28;20148;-73
2021/12/05 15:53:15;;;;;;;15.83;8.47;;;;;;;2.23;96.79;100295.56;31344287;28;20452;-76
2021/12/05 16:08:17;;;;;;;23.70;10.13;;;;;;;2.19;97.95;100307.34;31312029;28;20049;-75
2021/12/05 16:23:27;;;;;;;24.60;10.50;;;;;;;2.16;95.98;100295.44;31311550;28;20052;-75
2021/12/05 16:38:37;;;;;;;20.77;9.07;;;;;;;1.98;97.17;100323.81;31309235;28;20336;-72
2021/12/05 16:53:45;;;;;;;20.67;9.33;;;;;;;1.86;97.58;100364.91;31316340;28;20060;-74
2021/12/05 17:09:15;;;;;;;18.33;9.43;;;;;;;1.74;96.79;100350.88;31418939;28;20087;-73
2021/12/05 17:24:23;;;;;;;15.00;7.83;;;;;;;1.75;99.45;100368.47;31418916;28;20048;-72
2021/12/05 17:39:30;;;;;;;16.70;8.63;;;;;;;1.76;99.71;100348.63;31307311;28;20445;-73
2021/12/05 17:54:49;;;;;;;17.00;8.23;;;;;;;1.73;100.00;100365.38;31314442;28;20069;-74
2021/12/05 18:09:51;;;;;;;18.23;9.23;;;;;;;1.74;100.00;100370.38;31335781;28;20044;-72
2021/12/05 18:24:53;;;;;;;19.30;8.70;;;;;;;1.68;97.30;100382.47;31302438;28;20073;-72
2021/12/05 18:39:55;;;;;;;20.63;8.80;;;;;;;1.66;100.00;100390.88;31330131;28;20063;-73
2021/12/05 18:54:57;;;;;;;16.50;8.37;;;;;;;1.63;100.00;100367.50;31307981;28;20053;-75
2021/12/05 19:25:13;;;;;;;11.73;5.10;;;;;;;1.57;100.00;100390.31;31321576;28;20132;-79
2021/12/05 19:40:21;;;;;;;12.70;6.37;;;;;;;1.66;100.00;100401.56;31356496;28;20056;-80
2021/12/05 19:55:24;;;;;;;12.10;5.23;;;;;;;1.78;100.00;100405.25;31387190;28;20052;-73
2021/12/05 20:10:31;;;;;;;19.30;6.93;;;;;;;1.77;100.00;100399.13;31326231;28;20088;-83
2021/12/05 20:25:35;;;;;;;14.60;6.53;;;;;;;1.80;100.00;100395.75;31331981;28;20140;-74
2021/12/05 20:40:48;;;;;;;17.10;7.40;;;;;;;1.92;100.00;100421.59;31270026;28;20076;-73
2021/12/05 20:55:52;;;;;;;17.37;7.77;;;;;;;2.12;100.00;100409.78;31294994;28;20099;-74
2021/12/05 21:10:57;;;;;;;16.63;7.93;;;;;;;1.95;100.00;100421.66;31309552;28;20057;-73
2021/12/05 21:26:00;;;;;;;15.37;6.90;;;;;;;1.90;100.00;100411.25;31306764;28;20148;-72
2021/12/05 21:41:06;;;;;;;12.87;6.23;;;;;;;1.58;100.00;100397.22;31333230;28;20049;-72
2021/12/05 21:56:12;;;;;;;22.07;8.07;;;;;;;1.61;100.00;100399.19;31324268;28;20063;-72
2021/12/05 22:11:14;;;;;;;16.33;7.13;;;;;;;1.86;100.00;100407.75;31304051;28;20052;-71
2021/12/05 22:26:16;;;;;;;15.33;7.67;;;;;;;1.97;100.00;100410.63;31348573;28;20092;-74
2021/12/05 22:41:19;;;;;;;13.77;6.37;;;;;;;1.92;100.00;100416.25;31320314;28;20475;-74
2021/12/05 22:56:21;;;;;;;19.27;7.53;;;;;;;1.89;100.00;100425.00;31301055;28;20049;-74
2021/12/05 23:11:24;;;;;;;18.40;8.27;;;;;;;1.78;100.00;100426.66;31324510;28;20417;-74
2021/12/05 23:26:33;;;;;;;20.90;8.70;;;;;;;1.83;100.00;100437.09;31329401;28;20105;-73
2021/12/05 23:41:35;;;;;;;22.87;8.93;;;;;;;1.91;100.00;100442.25;31348856;28;20151;-73
2021/12/05 23:56:37;;;;;;;17.67;7.83;;;;;;;1.91;100.00;100436.09;31335389;28;20546;-74
